Weather at Aviosuperficie Avioclub Paternò

Public forecast

Using degrees Celsius for public forecast. Weather courtesy of forecast.io.

Closest aviation weather report (METAR) to Aviosuperficie Avioclub Paternò

Report is more than 6 hours old.

Closest report is Sigonella Navy Air Base, 9.3 nm (17.2 km) S. Retrieved 2021/01/20 18:55 UTC (2 days ago):

LICZ 201855Z 30003KT 9999 FEW040 SCT060 12/08 Q1027 RMK BKN VIS MIN 9999 WIND THR28 31005KT WIND THR10 29004KT A3034 BLU

Closest aviation forecast (TAF) to Aviosuperficie Avioclub Paternò

Forecast is more than 12 hours old.

Closest forecast is Sigonella Navy Air Base, 9.3 nm (17.2 km) S. Retrieved 2021/01/20 18:24 UTC (2 days ago):

TAF TAF LICZ 201700Z 2018/2118 27007KT 9999 SCT030 SCT070 TEMPO 2101/2104 5000 BR BECMG 2110/2112 22015KT 9999 SCT060